createdAt,value
2019-04-28T00:01:01.057Z,69.59
2019-04-28T00:03:10.743Z,71.01
2019-04-28T00:05:18.807Z,70.10
2019-04-28T00:07:26.495Z,69.05
2019-04-28T00:09:34.382Z,70.83
2019-04-28T00:11:42.342Z,70.23
2019-04-28T00:13:51.831Z,70.19
2019-04-28T00:16:01.494Z,70.55
2019-04-28T00:18:09.389Z,70.13
2019-04-28T00:20:22.376Z,70.40
2019-04-28T00:22:36.578Z,71.10
2019-04-28T00:25:09.003Z,70.02
2019-04-28T00:27:18.058Z,70.70
2019-04-28T00:29:37.674Z,70.04
2019-04-28T00:31:35.694Z,69.07
2019-04-28T00:33:43.683Z,69.44
2019-04-28T00:35:51.636Z,69.10
2019-04-28T00:38:01.423Z,69.10
2019-04-28T00:40:11.255Z,69.42
2019-04-28T00:42:19.128Z,70.30
2019-04-28T00:44:27.359Z,70.62
2019-04-28T00:46:36.754Z,70.59
2019-04-28T00:48:44.499Z,69.86
2019-04-28T00:50:52.299Z,69.94
2019-04-28T00:53:01.761Z,71.22
2019-04-28T00:55:11.055Z,70.22
2019-04-28T00:57:21.059Z,70.35
2019-04-28T00:59:29.056Z,71.28
2019-04-28T01:01:43.794Z,70.42
2019-04-28T01:03:51.994Z,70.75
2019-04-28T01:06:01.409Z,70.15
2019-04-28T01:08:10.931Z,70.10
2019-04-28T01:10:21.065Z,69.69
2019-04-28T01:12:28.764Z,69.35
2019-04-28T01:14:36.579Z,68.42
2019-04-28T01:16:53.362Z,69.25
2019-04-28T01:19:07.004Z,69.71
2019-04-28T01:21:14.709Z,70.55
2019-04-28T01:23:22.632Z,70.95
2019-04-28T01:25:31.702Z,70.98
2019-04-28T01:28:00.101Z,71.63
2019-04-28T01:30:13.422Z,69.63
2019-04-28T01:32:36.975Z,70.11
2019-04-28T01:34:44.952Z,70.02
2019-04-28T01:36:52.715Z,70.06
2019-04-28T01:39:00.444Z,70.27
2019-04-28T01:41:10.023Z,70.63
2019-04-28T01:43:19.572Z,71.53
2019-04-28T01:45:27.206Z,71.35
2019-04-28T01:47:34.998Z,70.91
2019-04-28T01:49:42.874Z,71.77
2019-04-28T01:52:00.837Z,71.53
2019-04-28T01:54:09.784Z,72.00
2019-04-28T01:56:18.223Z,70.26
2019-04-28T01:58:26.040Z,71.70
2019-04-28T02:00:33.824Z,70.70
2019-04-28T02:02:41.613Z,72.12
2019-04-28T02:04:50.406Z,71.97
2019-04-28T02:06:59.859Z,70.61
2019-04-28T02:09:10.666Z,70.49
2019-04-28T02:11:19.814Z,71.62
2019-04-28T02:13:27.647Z,71.62
2019-04-28T02:15:35.407Z,71.38
2019-04-28T02:17:43.428Z,71.63
2019-04-28T02:19:51.546Z,72.02
2019-04-28T02:22:10.503Z,70.55
2019-04-28T02:24:31.846Z,71.01
2019-04-28T02:26:40.289Z,71.91
2019-04-28T02:28:48.265Z,71.33
2019-04-28T02:30:57.815Z,71.04
2019-04-28T02:33:05.511Z,70.94
2019-04-28T02:35:13.624Z,71.37
2019-04-28T02:37:21.421Z,71.70
2019-04-28T02:39:31.300Z,70.65
2019-04-28T02:41:41.135Z,71.48
2019-04-28T02:43:50.851Z,72.07
2019-04-28T02:46:00.658Z,71.75
2019-04-28T02:48:11.116Z,71.28
2019-04-28T02:50:25.463Z,71.52
2019-04-28T02:52:51.862Z,70.36
2019-04-28T02:55:03.017Z,71.89
2019-04-28T02:57:11.052Z,71.65
2019-04-28T02:59:20.990Z,70.54
2019-04-28T03:01:30.655Z,71.56
2019-04-28T03:03:37.796Z,69.47
2019-04-28T03:05:45.661Z,70.60
2019-04-28T03:07:53.552Z,70.12
2019-04-28T03:10:03.903Z,69.93
2019-04-28T03:12:11.444Z,70.36
2019-04-28T03:14:20.963Z,71.49
2019-04-28T03:16:30.412Z,71.16
2019-04-28T03:18:41.080Z,72.25
2019-04-28T03:20:51.309Z,70.74
2019-04-28T03:23:00.345Z,71.48
2019-04-28T03:25:10.952Z,71.09
2019-04-28T03:27:40.807Z,71.01
2019-04-28T03:29:53.280Z,71.05
2019-04-28T03:32:39.651Z,70.49
2019-04-28T03:34:52.944Z,70.44
2019-04-28T03:37:00.310Z,71.60
2019-04-28T03:39:11.054Z,72.09
2019-04-28T03:41:21.000Z,72.23
2019-04-28T03:43:30.415Z,71.80
2019-04-28T03:45:42.609Z,71.43
2019-04-28T03:47:50.964Z,70.64
2019-04-28T03:50:00.078Z,70.89
2019-04-28T03:52:10.758Z,71.43
2019-04-28T03:54:20.390Z,70.06
2019-04-28T03:56:30.872Z,71.09
2019-04-28T03:58:40.479Z,70.71
2019-04-28T04:00:47.262Z,69.89
2019-04-28T04:02:55.029Z,71.36
2019-04-28T04:05:03.804Z,70.81
2019-04-28T04:07:12.045Z,70.70
2019-04-28T04:09:21.119Z,70.99
2019-04-28T04:11:38.042Z,69.98
2019-04-28T04:14:01.704Z,70.86
2019-04-28T04:16:31.235Z,70.56
2019-04-28T04:18:45.392Z,68.95
2019-04-28T04:20:53.254Z,70.40
2019-04-28T04:23:01.570Z,70.44
2019-04-28T04:25:12.433Z,70.35
2019-04-28T04:27:20.970Z,70.46
2019-04-28T04:29:30.843Z,69.76
2019-04-28T04:31:38.039Z,69.97
2019-04-28T04:33:45.907Z,70.11
2019-04-28T04:35:53.387Z,71.11
2019-04-28T04:38:01.154Z,69.86
2019-04-28T04:40:13.138Z,70.90
2019-04-28T04:42:20.413Z,69.45
2019-04-28T04:44:30.838Z,69.61
2019-04-28T04:46:37.237Z,70.86
2019-04-28T04:48:46.094Z,71.08
2019-04-28T04:50:53.895Z,69.94
2019-04-28T04:53:02.603Z,70.31
2019-04-28T04:55:11.251Z,70.02
2019-04-28T04:57:20.747Z,71.05
2019-04-28T04:59:30.262Z,70.57
2019-04-28T05:01:56.744Z,70.44
2019-04-28T05:04:14.241Z,70.24
2019-04-28T05:06:39.770Z,69.93
2019-04-28T05:08:47.686Z,69.90
2019-04-28T05:10:55.571Z,69.49
2019-04-28T05:13:03.419Z,70.62
2019-04-28T05:15:11.197Z,69.93
2019-04-28T05:17:20.270Z,70.57
2019-04-28T05:19:29.810Z,68.47
2019-04-28T05:21:39.854Z,69.41
2019-04-28T05:24:09.232Z,70.29
2019-04-28T05:26:15.453Z,69.50
2019-04-28T05:28:23.218Z,69.56
2019-04-28T05:30:34.948Z,69.09
2019-04-28T05:32:45.554Z,70.00
2019-04-28T05:34:50.675Z,69.14
2019-04-28T05:37:00.686Z,67.66
2019-04-28T05:39:10.469Z,68.69
2019-04-28T05:41:19.619Z,67.87
2019-04-28T05:43:27.562Z,68.43
2019-04-28T05:45:35.467Z,69.61
2019-04-28T05:47:43.211Z,69.18
2019-04-28T05:50:06.114Z,68.50
2019-04-28T05:52:47.733Z,69.15
2019-04-28T05:55:05.702Z,69.23
2019-04-28T05:57:21.797Z,68.66
2019-04-28T06:00:03.638Z,69.62
2019-04-28T06:02:17.167Z,68.88
2019-04-28T06:04:27.522Z,68.17
2019-04-28T06:06:40.515Z,68.55
2019-04-28T06:09:00.356Z,68.43
2019-04-28T06:11:25.565Z,68.34
2019-04-28T06:13:33.321Z,67.79
2019-04-28T06:15:41.231Z,68.06
2019-04-28T06:17:49.819Z,68.55
2019-04-28T06:19:57.757Z,68.86
2019-04-28T06:22:05.442Z,68.58
2019-04-28T06:24:13.191Z,69.06
2019-04-28T06:26:20.878Z,68.27
2019-04-28T06:28:28.578Z,68.60
2019-04-28T06:30:36.354Z,68.44
2019-04-28T06:32:44.313Z,69.53
2019-04-28T06:34:52.204Z,69.45
2019-04-28T06:36:59.905Z,68.81
2019-04-28T06:39:09.842Z,68.69
2019-04-28T06:41:17.441Z,68.83
2019-04-28T06:43:25.261Z,68.80
2019-04-28T06:45:33.132Z,68.83
2019-04-28T06:47:41.095Z,67.64
2019-04-28T06:49:48.989Z,68.04
2019-04-28T06:51:56.811Z,69.73
2019-04-28T06:54:04.919Z,67.57
2019-04-28T06:56:12.639Z,68.00
2019-04-28T06:58:20.303Z,67.91
2019-04-28T07:00:28.192Z,68.77
2019-04-28T07:02:36.050Z,68.38
2019-04-28T07:04:43.931Z,68.47
2019-04-28T07:06:51.755Z,67.78
2019-04-28T07:08:59.390Z,69.02
2019-04-28T07:11:07.298Z,67.62
2019-04-28T07:13:15.209Z,68.56
2019-04-28T07:15:22.840Z,69.27
2019-04-28T07:17:30.727Z,69.45
2019-04-28T07:19:38.663Z,69.63
2019-04-28T07:21:55.353Z,69.87
2019-04-28T07:24:03.361Z,69.93
2019-04-28T07:26:11.078Z,70.37
2019-04-28T07:28:18.848Z,70.75
2019-04-28T07:30:26.765Z,70.50
2019-04-28T07:32:34.521Z,70.16
2019-04-28T07:34:42.221Z,68.64
2019-04-28T07:36:50.125Z,69.24
2019-04-28T07:38:58.117Z,69.17
2019-04-28T07:41:06.010Z,69.64
2019-04-28T07:43:13.692Z,68.67
2019-04-28T07:45:21.558Z,69.46
2019-04-28T07:47:29.188Z,70.12
2019-04-28T07:49:37.021Z,69.14
2019-04-28T07:52:07.498Z,69.39
2019-04-28T07:54:16.872Z,69.98
2019-04-28T07:56:24.888Z,69.53
2019-04-28T07:58:32.797Z,70.20
2019-04-28T08:00:40.729Z,68.99
2019-04-28T08:02:48.458Z,69.44
2019-04-28T08:04:56.287Z,69.19
2019-04-28T08:07:04.084Z,68.60
2019-04-28T08:09:13.428Z,69.60
2019-04-28T08:11:21.736Z,70.09
2019-04-28T08:13:29.781Z,68.12
2019-04-28T08:15:38.025Z,69.88
2019-04-28T08:17:45.841Z,68.58
2019-04-28T08:19:53.820Z,67.63
2019-04-28T08:22:01.753Z,66.90
2019-04-28T08:24:09.624Z,67.52
2019-04-28T08:26:17.332Z,66.65
2019-04-28T08:28:25.051Z,66.95
2019-04-28T08:30:32.876Z,68.85
2019-04-28T08:32:58.067Z,68.16
2019-04-28T08:35:06.271Z,67.87
2019-04-28T08:37:14.562Z,67.29
2019-04-28T08:39:25.090Z,68.43
2019-04-28T08:41:40.691Z,68.94
2019-04-28T08:43:48.651Z,67.16
2019-04-28T08:45:56.499Z,69.10
2019-04-28T08:48:04.135Z,70.23
2019-04-28T08:50:12.762Z,70.11
2019-04-28T08:52:20.585Z,70.44
2019-04-28T08:54:28.406Z,69.25
2019-04-28T08:56:36.213Z,68.10
2019-04-28T08:58:43.994Z,68.50
2019-04-28T09:00:51.955Z,70.40
2019-04-28T09:02:59.893Z,70.19
2019-04-28T09:05:07.903Z,70.60
2019-04-28T09:07:15.648Z,70.46
2019-04-28T09:09:23.737Z,69.18
2019-04-28T09:11:31.681Z,68.48
2019-04-28T09:13:39.595Z,69.27
2019-04-28T09:15:47.584Z,69.97
2019-04-28T09:17:55.594Z,69.67
2019-04-28T09:20:03.480Z,69.97
2019-04-28T09:22:11.412Z,69.88
2019-04-28T09:24:19.389Z,70.15
2019-04-28T09:26:27.170Z,71.12
2019-04-28T09:28:34.901Z,70.88
2019-04-28T09:30:43.325Z,70.40
2019-04-28T09:32:51.072Z,71.00
2019-04-28T09:34:58.845Z,71.44
2019-04-28T09:37:06.898Z,71.02
2019-04-28T09:39:16.709Z,71.05
2019-04-28T09:41:24.460Z,71.27
2019-04-28T09:43:50.173Z,70.24
2019-04-28T09:46:11.545Z,70.56
2019-04-28T09:48:19.652Z,72.38
2019-04-28T09:50:27.537Z,72.07
2019-04-28T09:52:35.599Z,70.40
2019-04-28T09:54:43.396Z,71.82
2019-04-28T09:56:57.008Z,71.86
2019-04-28T09:59:01.341Z,70.34
2019-04-28T10:01:09.422Z,72.53
2019-04-28T10:03:17.306Z,72.84
2019-04-28T10:05:25.267Z,71.02
2019-04-28T10:07:33.253Z,70.81
2019-04-28T10:09:41.321Z,72.05
2019-04-28T10:11:49.427Z,70.69
2019-04-28T10:13:57.306Z,72.14
2019-04-28T10:16:05.406Z,72.38
2019-04-28T10:18:13.075Z,72.88
2019-04-28T10:20:22.264Z,73.05
2019-04-28T10:22:30.029Z,73.85
2019-04-28T10:24:37.803Z,71.90
2019-04-28T10:26:45.566Z,72.91
2019-04-28T10:28:53.552Z,72.74
2019-04-28T10:31:02.416Z,72.35
2019-04-28T10:33:10.397Z,72.31
2019-04-28T10:35:18.547Z,72.69
2019-04-28T10:37:26.288Z,72.79
2019-04-28T10:39:39.835Z,72.54
2019-04-28T10:41:47.685Z,71.88
2019-04-28T10:43:55.474Z,70.41
2019-04-28T10:46:03.657Z,71.59
2019-04-28T10:48:11.448Z,71.50
2019-04-28T10:50:19.742Z,71.82
2019-04-28T10:52:27.764Z,72.04
2019-04-28T10:54:35.583Z,72.41
2019-04-28T10:56:43.494Z,71.62
2019-04-28T10:58:53.196Z,71.46
2019-04-28T11:01:01.104Z,70.53
2019-04-28T11:03:09.093Z,71.66
2019-04-28T11:05:25.061Z,71.60
2019-04-28T11:07:33.223Z,71.30
2019-04-28T11:09:45.735Z,71.11
2019-04-28T11:11:53.641Z,72.12
2019-04-28T11:14:01.786Z,70.12
2019-04-28T11:16:11.312Z,71.68
2019-04-28T11:18:19.522Z,71.56
2019-04-28T11:20:27.711Z,72.22
2019-04-28T11:22:35.892Z,71.40
2019-04-28T11:24:43.772Z,71.13
2019-04-28T11:26:51.665Z,71.00
2019-04-28T11:28:59.410Z,71.82
2019-04-28T11:31:07.790Z,71.72
2019-04-28T11:33:34.278Z,71.79
2019-04-28T11:35:42.416Z,72.07
2019-04-28T11:37:50.167Z,73.32
2019-04-28T11:39:58.088Z,73.13
2019-04-28T11:42:06.455Z,71.41
2019-04-28T11:44:14.363Z,72.75
2019-04-28T11:46:24.119Z,71.97
2019-04-28T11:48:32.195Z,72.92
2019-04-28T11:50:40.412Z,72.16
2019-04-28T11:52:48.290Z,70.69
2019-04-28T11:54:56.088Z,72.22
2019-04-28T11:57:04.167Z,72.57
2019-04-28T11:59:12.018Z,72.49
2019-04-28T12:01:21.586Z,72.88
2019-04-28T12:03:29.374Z,72.40
2019-04-28T12:05:43.459Z,73.97
2019-04-28T12:07:51.284Z,73.94
2019-04-28T12:10:08.112Z,74.05
2019-04-28T12:12:32.952Z,74.29
2019-04-28T12:14:59.527Z,74.22
2019-04-28T12:17:25.275Z,72.85
2019-04-28T12:19:39.524Z,72.71
2019-04-28T12:21:47.431Z,74.01
2019-04-28T12:23:55.597Z,72.03
2019-04-28T12:26:03.764Z,73.35
2019-04-28T12:28:11.601Z,71.42
2019-04-28T12:30:19.528Z,74.12
2019-04-28T12:32:27.384Z,74.61
2019-04-28T12:34:35.694Z,72.64
2019-04-28T12:36:43.728Z,74.97
2019-04-28T12:38:51.761Z,75.15
2019-04-28T12:41:00.073Z,73.86
2019-04-28T12:43:08.497Z,75.79
2019-04-28T12:45:16.477Z,73.81
2019-04-28T12:47:24.242Z,73.96
2019-04-28T12:49:38.452Z,72.39
2019-04-28T12:51:46.577Z,73.01
2019-04-28T12:53:57.995Z,75.43
2019-04-28T12:56:06.033Z,73.98
2019-04-28T12:58:14.167Z,74.07
2019-04-28T13:00:33.028Z,75.43
2019-04-28T13:02:59.812Z,74.62
2019-04-28T13:05:12.117Z,75.59
2019-04-28T13:07:20.167Z,75.27
2019-04-28T13:09:28.056Z,75.35
2019-04-28T13:11:36.196Z,75.40
2019-04-28T13:13:47.006Z,74.22
2019-04-28T13:15:55.076Z,75.51
2019-04-28T13:18:02.943Z,73.20
2019-04-28T13:20:11.290Z,74.94
2019-04-28T13:22:18.604Z,75.26
2019-04-28T13:24:26.584Z,75.28
2019-04-28T13:26:34.626Z,75.22
2019-04-28T13:28:42.577Z,74.75
2019-04-28T13:30:50.698Z,75.95
2019-04-28T13:32:58.338Z,73.60
2019-04-28T13:35:06.630Z,73.33
2019-04-28T13:37:14.634Z,74.81
2019-04-28T13:39:30.728Z,75.72
2019-04-28T13:41:38.778Z,74.22
2019-04-28T13:43:46.993Z,74.68
2019-04-28T13:45:54.617Z,74.06
2019-04-28T13:48:02.785Z,75.25
2019-04-28T13:50:29.763Z,74.32
2019-04-28T13:52:37.768Z,75.25
2019-04-28T13:54:46.998Z,75.16
2019-04-28T13:56:55.234Z,74.30
2019-04-28T13:59:17.423Z,75.00
2019-04-28T14:01:44.334Z,76.15
2019-04-28T14:04:05.495Z,76.41
2019-04-28T14:06:27.622Z,74.70
2019-04-28T14:08:25.242Z,75.24
2019-04-28T14:10:33.326Z,74.33
2019-04-28T14:12:41.478Z,75.37
2019-04-28T14:14:49.691Z,75.67
2019-04-28T14:16:57.656Z,75.12
2019-04-28T14:19:05.770Z,77.01
2019-04-28T14:21:13.773Z,77.88
2019-04-28T14:23:21.485Z,78.75
2019-04-28T14:25:29.736Z,75.87
2019-04-28T14:27:37.631Z,77.24
2019-04-28T14:29:45.460Z,75.42
2019-04-28T14:31:53.505Z,76.64
2019-04-28T14:34:01.456Z,76.24
2019-04-28T14:36:09.892Z,76.20
2019-04-28T14:38:17.780Z,75.42
2019-04-28T14:40:26.892Z,77.28
2019-04-28T14:42:34.961Z,77.21
2019-04-28T14:44:43.225Z,77.99
2019-04-28T14:46:51.096Z,78.43
2019-04-28T14:48:59.286Z,79.24
2019-04-28T14:51:08.067Z,78.27
2019-04-28T14:53:16.367Z,78.47
2019-04-28T14:55:24.860Z,80.10
2019-04-28T14:57:33.233Z,77.72
2019-04-28T14:59:41.969Z,77.98
2019-04-28T15:02:08.588Z,79.10
2019-04-28T15:04:32.303Z,79.62
2019-04-28T15:06:55.461Z,79.72
2019-04-28T15:09:21.556Z,81.12
2019-04-28T15:11:34.025Z,81.13
2019-04-28T15:13:42.728Z,81.78
2019-04-28T15:15:51.485Z,81.42
2019-04-28T15:17:59.893Z,81.87
2019-04-28T15:20:08.460Z,79.90
2019-04-28T15:22:16.786Z,81.18
2019-04-28T15:24:24.683Z,81.70
2019-04-28T15:26:32.547Z,81.14
2019-04-28T15:28:40.500Z,81.71
2019-04-28T15:30:48.513Z,82.80
2019-04-28T15:32:56.708Z,82.62
2019-04-28T15:35:05.204Z,81.67
2019-04-28T15:37:15.553Z,81.71
2019-04-28T15:39:23.035Z,82.05
2019-04-28T15:41:31.244Z,83.00
2019-04-28T15:43:39.248Z,83.13
2019-04-28T15:45:47.351Z,83.15
2019-04-28T15:47:55.482Z,82.08
2019-04-28T15:50:03.511Z,82.91
2019-04-28T15:52:12.418Z,82.29
2019-04-28T15:54:20.575Z,81.17
2019-04-28T15:56:42.313Z,82.31
2019-04-28T15:58:50.310Z,81.93
2019-04-28T16:00:58.351Z,82.32
2019-04-28T16:03:06.454Z,81.28
2019-04-28T16:05:15.284Z,83.05
2019-04-28T16:07:25.200Z,81.80
2019-04-28T16:09:33.508Z,81.61
2019-04-28T16:11:42.219Z,82.46
2019-04-28T16:13:50.553Z,81.64
2019-04-28T16:15:58.848Z,81.71
2019-04-28T16:18:07.133Z,81.83
2019-04-28T16:20:15.063Z,81.18
2019-04-28T16:22:24.171Z,81.68
2019-04-28T16:24:34.712Z,80.87
2019-04-28T16:26:41.772Z,81.99
2019-04-28T16:28:50.420Z,82.74
2019-04-28T16:30:59.005Z,81.01
2019-04-28T16:33:07.051Z,81.78
2019-04-28T16:35:14.963Z,82.99
2019-04-28T16:37:23.384Z,83.24
2019-04-28T16:39:31.745Z,82.27
2019-04-28T16:41:41.127Z,82.49
2019-04-28T16:43:50.575Z,82.83
2019-04-28T16:45:59.674Z,80.89
2019-04-28T16:48:07.745Z,81.98
2019-04-28T16:50:16.206Z,82.25
2019-04-28T16:52:24.523Z,81.63
2019-04-28T16:54:33.119Z,79.90
2019-04-28T16:56:50.318Z,82.40
2019-04-28T16:59:20.326Z,83.04
2019-04-28T17:01:59.366Z,82.84
2019-04-28T17:04:10.515Z,82.89
2019-04-28T17:06:18.392Z,82.55
2019-04-28T17:08:26.656Z,82.24
2019-04-28T17:10:35.123Z,83.30
2019-04-28T17:12:43.410Z,83.08
2019-04-28T17:14:52.316Z,83.11
2019-04-28T17:17:00.682Z,81.93
2019-04-28T17:19:08.833Z,83.62
2019-04-28T17:21:17.116Z,83.49
2019-04-28T17:23:25.578Z,83.13
2019-04-28T17:25:33.759Z,83.43
2019-04-28T17:27:42.001Z,81.42
2019-04-28T17:29:51.262Z,82.90
2019-04-28T17:32:00.040Z,82.65
2019-04-28T17:34:08.780Z,82.62
2019-04-28T17:36:17.400Z,81.95
2019-04-28T17:38:25.405Z,82.95
2019-04-28T17:40:34.395Z,82.77
2019-04-28T17:42:42.954Z,83.75
2019-04-28T17:44:51.255Z,83.28
2019-04-28T17:46:59.308Z,82.91
2019-04-28T17:49:07.873Z,83.47
2019-04-28T17:51:15.980Z,83.28
2019-04-28T17:53:24.667Z,83.75
2019-04-28T17:55:32.948Z,81.95
2019-04-28T17:57:41.530Z,82.61
2019-04-28T17:59:51.766Z,83.77
2019-04-28T18:02:17.374Z,81.95
2019-04-28T18:04:46.976Z,82.42
2019-04-28T18:07:03.619Z,83.47
2019-04-28T18:09:12.751Z,82.36
2019-04-28T18:11:20.947Z,83.80
2019-04-28T18:13:29.021Z,83.89
2019-04-28T18:16:03.493Z,82.63
2019-04-28T18:18:42.062Z,82.45
2019-04-28T18:20:50.211Z,82.65
2019-04-28T18:22:58.432Z,83.03
2019-04-28T18:25:06.716Z,82.89
2019-04-28T18:27:14.781Z,84.42
2019-04-28T18:29:22.733Z,83.06
2019-04-28T18:31:58.838Z,83.17
2019-04-28T18:34:25.755Z,84.57
2019-04-28T18:36:49.515Z,82.86
2019-04-28T18:39:10.599Z,84.58
2019-04-28T18:41:35.962Z,84.48
2019-04-28T18:44:02.840Z,85.21
2019-04-28T18:46:11.126Z,85.56
2019-04-28T18:48:19.208Z,84.57
2019-04-28T18:50:27.288Z,84.94
2019-04-28T18:52:35.207Z,85.23
2019-04-28T18:54:43.089Z,85.13
2019-04-28T18:56:51.432Z,85.38
2019-04-28T18:58:59.502Z,84.27
2019-04-28T19:01:25.865Z,84.15
2019-04-28T19:03:33.854Z,84.19
2019-04-28T19:05:43.853Z,83.89
2019-04-28T19:08:16.842Z,85.51
2019-04-28T19:10:35.817Z,85.06
2019-04-28T19:13:05.985Z,84.75
2019-04-28T19:15:38.775Z,85.63
2019-04-28T19:18:02.618Z,84.52
2019-04-28T19:20:13.601Z,85.42
2019-04-28T19:22:20.712Z,85.38
2019-04-28T19:24:29.092Z,85.86
2019-04-28T19:26:37.172Z,85.33
2019-04-28T19:28:45.616Z,85.17
2019-04-28T19:30:53.471Z,85.68
2019-04-28T19:33:01.445Z,84.54
2019-04-28T19:35:09.596Z,84.42
2019-04-28T19:37:17.543Z,82.83
2019-04-28T19:39:25.758Z,85.38
2019-04-28T19:41:33.549Z,85.87
2019-04-28T19:43:41.697Z,83.04
2019-04-28T19:45:51.453Z,85.63
2019-04-28T19:47:59.344Z,85.70
2019-04-28T19:50:07.649Z,85.63
2019-04-28T19:52:15.679Z,84.45
2019-04-28T19:54:27.386Z,84.52
2019-04-28T19:56:43.011Z,86.12
2019-04-28T19:58:58.653Z,86.55
2019-04-28T20:01:12.940Z,85.84
2019-04-28T20:03:20.838Z,85.57
2019-04-28T20:05:28.722Z,83.21
2019-04-28T20:07:36.665Z,83.18
2019-04-28T20:09:44.853Z,82.91
2019-04-28T20:11:52.851Z,83.71
2019-04-28T20:14:00.644Z,82.84
2019-04-28T20:16:08.447Z,85.23
2019-04-28T20:18:16.332Z,84.35
2019-04-28T20:20:24.220Z,86.39
2019-04-28T20:22:32.181Z,85.09
2019-04-28T20:24:47.038Z,85.60
2019-04-28T20:26:50.125Z,84.03
2019-04-28T20:28:58.118Z,81.96
2019-04-28T20:31:06.185Z,82.09
2019-04-28T20:33:14.047Z,84.44
2019-04-28T20:35:26.330Z,81.72
2019-04-28T20:37:41.635Z,81.31
2019-04-28T20:39:52.831Z,81.78
2019-04-28T20:42:19.479Z,83.65
2019-04-28T20:44:27.294Z,81.31
2019-04-28T20:46:35.244Z,81.96
2019-04-28T20:48:42.911Z,84.47
2019-04-28T20:50:50.827Z,82.49
2019-04-28T20:52:58.653Z,82.51
2019-04-28T20:55:06.891Z,81.27
2019-04-28T20:57:14.636Z,83.70
2019-04-28T20:59:22.459Z,83.84
2019-04-28T21:01:30.045Z,82.75
2019-04-28T21:03:38.663Z,82.53
2019-04-28T21:05:46.571Z,81.10
2019-04-28T21:07:54.605Z,80.96
2019-04-28T21:10:02.314Z,82.57
2019-04-28T21:12:10.202Z,83.24
2019-04-28T21:14:20.629Z,84.48
2019-04-28T21:16:27.842Z,83.92
2019-04-28T21:18:35.652Z,85.05
2019-04-28T21:20:43.509Z,84.83
2019-04-28T21:22:51.260Z,85.03
2019-04-28T21:24:59.115Z,83.88
2019-04-28T21:27:07.133Z,84.38
2019-04-28T21:29:14.994Z,84.08
2019-04-28T21:31:23.067Z,83.64
2019-04-28T21:33:30.977Z,85.00
2019-04-28T21:35:38.798Z,85.79
2019-04-28T21:37:46.571Z,85.36
2019-04-28T21:39:54.343Z,82.92
2019-04-28T21:42:03.726Z,82.35
2019-04-28T21:44:33.188Z,84.45
2019-04-28T21:46:55.025Z,83.18
2019-04-28T21:49:21.526Z,81.97
2019-04-28T21:51:29.606Z,83.27
2019-04-28T21:53:37.285Z,81.72
2019-04-28T21:55:45.143Z,83.13
2019-04-28T21:57:52.902Z,81.62
2019-04-28T22:00:00.746Z,81.56
2019-04-28T22:02:08.599Z,82.33
2019-04-28T22:04:16.412Z,83.32
2019-04-28T22:06:24.255Z,81.68
2019-04-28T22:08:31.968Z,81.77
2019-04-28T22:10:39.606Z,82.58
2019-04-28T22:12:47.593Z,83.32
2019-04-28T22:14:55.314Z,83.83
2019-04-28T22:17:03.110Z,83.95
2019-04-28T22:19:11.247Z,83.57
2019-04-28T22:21:18.988Z,84.41
2019-04-28T22:23:35.881Z,83.68
2019-04-28T22:25:43.686Z,81.90
2019-04-28T22:27:51.455Z,82.47
2019-04-28T22:29:59.272Z,83.50
2019-04-28T22:32:07.223Z,81.20
2019-04-28T22:34:16.304Z,80.00
2019-04-28T22:36:23.930Z,80.48
2019-04-28T22:38:31.669Z,83.09
2019-04-28T22:40:39.476Z,83.13
2019-04-28T22:42:47.405Z,83.32
2019-04-28T22:44:55.299Z,85.14
2019-04-28T22:47:02.942Z,83.60
2019-04-28T22:49:10.624Z,84.60
2019-04-28T22:51:18.413Z,82.98
2019-04-28T22:53:32.466Z,84.06
2019-04-28T22:55:48.232Z,85.67
2019-04-28T22:58:14.268Z,85.40
2019-04-28T23:00:50.556Z,85.45
2019-04-28T23:02:58.513Z,85.41
2019-04-28T23:05:08.590Z,84.90
2019-04-28T23:07:16.487Z,85.37
2019-04-28T23:09:24.452Z,84.65
2019-04-28T23:11:32.427Z,85.05
2019-04-28T23:13:40.123Z,85.90
2019-04-28T23:15:48.067Z,84.81
2019-04-28T23:17:55.930Z,82.57
2019-04-28T23:20:04.835Z,82.49
2019-04-28T23:22:18.184Z,81.01
2019-04-28T23:24:25.946Z,82.31
2019-04-28T23:26:33.658Z,80.40
2019-04-28T23:28:41.438Z,80.65
2019-04-28T23:30:49.410Z,82.55
2019-04-28T23:32:57.251Z,81.63
2019-04-28T23:35:05.451Z,83.17
2019-04-28T23:37:13.150Z,82.32
2019-04-28T23:39:20.978Z,81.67
2019-04-28T23:41:40.469Z,82.60
2019-04-28T23:43:48.131Z,84.24
2019-04-28T23:45:55.871Z,84.14
2019-04-28T23:48:03.796Z,84.30
2019-04-28T23:50:13.460Z,81.77
2019-04-28T23:52:44.518Z,81.49
2019-04-28T23:54:53.488Z,83.89
2019-04-28T23:57:01.204Z,83.79
2019-04-28T23:59:09.019Z,85.51
